sensor_id;sensor_type;location;lat;lon;timestamp;temperature;humidity
65050;DHT22;52090;51.224;-2.328;2022-07-11T00:02:09;20.60;58.80
65050;DHT22;52090;51.224;-2.328;2022-07-11T00:05:52;20.50;59.10
65050;DHT22;52090;51.224;-2.328;2022-07-11T00:09:35;20.40;59.20
65050;DHT22;52090;51.224;-2.328;2022-07-11T00:13:17;20.40;59.60
65050;DHT22;52090;51.224;-2.328;2022-07-11T00:16:59;20.30;59.40
65050;DHT22;52090;51.224;-2.328;2022-07-11T00:20:41;20.30;59.50
65050;DHT22;52090;51.224;-2.328;2022-07-11T00:24:23;20.30;59.60
65050;DHT22;52090;51.224;-2.328;2022-07-11T00:28:06;20.20;59.60
65050;DHT22;52090;51.224;-2.328;2022-07-11T00:31:48;20.20;59.10
65050;DHT22;52090;51.224;-2.328;2022-07-11T00:35:30;20.20;59.10
65050;DHT22;52090;51.224;-2.328;2022-07-11T00:39:14;20.10;59.50
65050;DHT22;52090;51.224;-2.328;2022-07-11T00:42:56;20.00;59.80
65050;DHT22;52090;51.224;-2.328;2022-07-11T00:46:38;19.90;60.00
65050;DHT22;52090;51.224;-2.328;2022-07-11T00:50:20;19.90;60.10
65050;DHT22;52090;51.224;-2.328;2022-07-11T00:54:02;19.80;60.10
65050;DHT22;52090;51.224;-2.328;2022-07-11T00:57:45;19.90;60.20
65050;DHT22;52090;51.224;-2.328;2022-07-11T01:01:27;19.80;60.10
65050;DHT22;52090;51.224;-2.328;2022-07-11T01:05:09;19.80;60.10
65050;DHT22;52090;51.224;-2.328;2022-07-11T01:08:51;19.80;60.10
65050;DHT22;52090;51.224;-2.328;2022-07-11T01:12:32;19.80;60.10
65050;DHT22;52090;51.224;-2.328;2022-07-11T01:16:21;19.80;60.10
65050;DHT22;52090;51.224;-2.328;2022-07-11T01:20:04;19.70;60.20
65050;DHT22;52090;51.224;-2.328;2022-07-11T01:23:47;19.70;60.40
65050;DHT22;52090;51.224;-2.328;2022-07-11T01:27:30;19.70;60.80
65050;DHT22;52090;51.224;-2.328;2022-07-11T01:31:12;19.60;60.50
65050;DHT22;52090;51.224;-2.328;2022-07-11T01:34:54;19.60;60.60
65050;DHT22;52090;51.224;-2.328;2022-07-11T01:38:36;19.50;60.70
65050;DHT22;52090;51.224;-2.328;2022-07-11T01:42:18;19.50;60.90
65050;DHT22;52090;51.224;-2.328;2022-07-11T01:46:00;19.50;61.00
65050;DHT22;52090;51.224;-2.328;2022-07-11T01:49:42;19.40;61.10
65050;DHT22;52090;51.224;-2.328;2022-07-11T01:53:24;19.40;61.20
65050;DHT22;52090;51.224;-2.328;2022-07-11T01:57:06;19.30;61.30
65050;DHT22;52090;51.224;-2.328;2022-07-11T02:00:48;19.30;61.30
65050;DHT22;52090;51.224;-2.328;2022-07-11T02:04:30;19.30;61.40
65050;DHT22;52090;51.224;-2.328;2022-07-11T02:08:11;19.30;61.50
65050;DHT22;52090;51.224;-2.328;2022-07-11T02:11:53;19.20;61.50
65050;DHT22;52090;51.224;-2.328;2022-07-11T02:15:35;19.20;61.60
65050;DHT22;52090;51.224;-2.328;2022-07-11T02:19:17;19.10;61.60
65050;DHT22;52090;51.224;-2.328;2022-07-11T02:22:59;19.10;61.60
65050;DHT22;52090;51.224;-2.328;2022-07-11T02:26:42;19.10;61.60
65050;DHT22;52090;51.224;-2.328;2022-07-11T02:30:24;19.00;61.70
65050;DHT22;52090;51.224;-2.328;2022-07-11T02:34:06;19.00;62.00
65050;DHT22;52090;51.224;-2.328;2022-07-11T02:37:48;19.00;61.80
65050;DHT22;52090;51.224;-2.328;2022-07-11T02:41:30;18.90;61.70
65050;DHT22;52090;51.224;-2.328;2022-07-11T02:45:12;18.90;61.80
65050;DHT22;52090;51.224;-2.328;2022-07-11T02:48:54;18.90;61.80
65050;DHT22;52090;51.224;-2.328;2022-07-11T02:52:36;18.90;61.60
65050;DHT22;52090;51.224;-2.328;2022-07-11T02:56:18;18.80;61.70
65050;DHT22;52090;51.224;-2.328;2022-07-11T03:00:02;18.80;61.70
65050;DHT22;52090;51.224;-2.328;2022-07-11T03:03:44;18.70;61.80
65050;DHT22;52090;51.224;-2.328;2022-07-11T03:07:27;18.80;61.90
65050;DHT22;52090;51.224;-2.328;2022-07-11T03:11:09;18.70;61.90
65050;DHT22;52090;51.224;-2.328;2022-07-11T03:14:51;18.60;62.00
65050;DHT22;52090;51.224;-2.328;2022-07-11T03:18:33;18.60;62.10
65050;DHT22;52090;51.224;-2.328;2022-07-11T03:22:16;18.60;62.30
65050;DHT22;52090;51.224;-2.328;2022-07-11T03:25:58;18.50;62.40
65050;DHT22;52090;51.224;-2.328;2022-07-11T03:29:40;18.40;62.40
65050;DHT22;52090;51.224;-2.328;2022-07-11T03:33:22;18.40;62.50
65050;DHT22;52090;51.224;-2.328;2022-07-11T03:37:05;18.30;62.50
65050;DHT22;52090;51.224;-2.328;2022-07-11T03:40:47;18.30;62.70
65050;DHT22;52090;51.224;-2.328;2022-07-11T03:44:29;18.20;62.80
65050;DHT22;52090;51.224;-2.328;2022-07-11T03:48:11;18.20;62.90
65050;DHT22;52090;51.224;-2.328;2022-07-11T03:51:53;18.10;63.00
65050;DHT22;52090;51.224;-2.328;2022-07-11T03:55:35;18.10;63.00
65050;DHT22;52090;51.224;-2.328;2022-07-11T03:59:18;18.10;63.00
65050;DHT22;52090;51.224;-2.328;2022-07-11T04:03:00;18.00;63.10
65050;DHT22;52090;51.224;-2.328;2022-07-11T04:06:42;17.90;63.20
65050;DHT22;52090;51.224;-2.328;2022-07-11T04:10:30;17.90;63.40
65050;DHT22;52090;51.224;-2.328;2022-07-11T04:14:12;17.90;63.30
65050;DHT22;52090;51.224;-2.328;2022-07-11T04:17:53;17.90;63.20
65050;DHT22;52090;51.224;-2.328;2022-07-11T04:21:35;18.00;63.20
65050;DHT22;52090;51.224;-2.328;2022-07-11T04:25:20;18.00;63.10
65050;DHT22;52090;51.224;-2.328;2022-07-11T04:29:02;18.00;63.10
65050;DHT22;52090;51.224;-2.328;2022-07-11T04:32:44;18.00;63.40
65050;DHT22;52090;51.224;-2.328;2022-07-11T04:36:25;17.90;63.70
65050;DHT22;52090;51.224;-2.328;2022-07-11T04:40:08;17.90;63.90
65050;DHT22;52090;51.224;-2.328;2022-07-11T04:43:54;17.90;63.80
65050;DHT22;52090;51.224;-2.328;2022-07-11T04:47:36;17.80;64.00
65050;DHT22;52090;51.224;-2.328;2022-07-11T04:51:18;17.80;64.20
65050;DHT22;52090;51.224;-2.328;2022-07-11T04:54:59;17.90;64.20
65050;DHT22;52090;51.224;-2.328;2022-07-11T04:58:41;17.80;64.20
65050;DHT22;52090;51.224;-2.328;2022-07-11T05:02:23;17.80;64.40
65050;DHT22;52090;51.224;-2.328;2022-07-11T05:06:06;17.70;64.50
65050;DHT22;52090;51.224;-2.328;2022-07-11T05:09:48;17.60;64.70
65050;DHT22;52090;51.224;-2.328;2022-07-11T05:13:30;17.50;64.80
65050;DHT22;52090;51.224;-2.328;2022-07-11T05:17:12;17.60;65.00
65050;DHT22;52090;51.224;-2.328;2022-07-11T05:20:54;17.50;65.00
65050;DHT22;52090;51.224;-2.328;2022-07-11T05:24:36;17.60;65.00
65050;DHT22;52090;51.224;-2.328;2022-07-11T05:28:18;17.60;65.00
65050;DHT22;52090;51.224;-2.328;2022-07-11T05:32:00;17.70;65.10
65050;DHT22;52090;51.224;-2.328;2022-07-11T05:35:42;17.70;65.20
65050;DHT22;52090;51.224;-2.328;2022-07-11T05:39:24;17.90;65.30
65050;DHT22;52090;51.224;-2.328;2022-07-11T05:43:07;18.50;65.00
65050;DHT22;52090;51.224;-2.328;2022-07-11T05:46:49;19.20;64.20
65050;DHT22;52090;51.224;-2.328;2022-07-11T05:50:32;19.80;63.30
65050;DHT22;52090;51.224;-2.328;2022-07-11T05:54:14;20.40;62.80
65050;DHT22;52090;51.224;-2.328;2022-07-11T05:57:59;20.80;62.30
65050;DHT22;52090;51.224;-2.328;2022-07-11T06:01:41;21.30;61.40
65050;DHT22;52090;51.224;-2.328;2022-07-11T06:05:23;21.70;61.20
65050;DHT22;52090;51.224;-2.328;2022-07-11T06:09:06;22.10;60.80
65050;DHT22;52090;51.224;-2.328;2022-07-11T06:12:48;22.40;60.50
65050;DHT22;52090;51.224;-2.328;2022-07-11T06:16:30;22.70;60.20
65050;DHT22;52090;51.224;-2.328;2022-07-11T06:20:12;23.00;59.80
65050;DHT22;52090;51.224;-2.328;2022-07-11T06:23:54;23.30;59.30
65050;DHT22;52090;51.224;-2.328;2022-07-11T06:27:36;23.50;58.70
65050;DHT22;52090;51.224;-2.328;2022-07-11T06:31:18;23.70;58.40
65050;DHT22;52090;51.224;-2.328;2022-07-11T06:35:00;23.90;58.00
65050;DHT22;52090;51.224;-2.328;2022-07-11T06:38:42;24.10;57.70
65050;DHT22;52090;51.224;-2.328;2022-07-11T06:42:24;24.30;57.20
65050;DHT22;52090;51.224;-2.328;2022-07-11T06:46:06;24.50;56.90
65050;DHT22;52090;51.224;-2.328;2022-07-11T06:49:48;24.60;56.80
65050;DHT22;52090;51.224;-2.328;2022-07-11T06:53:30;24.90;56.60
65050;DHT22;52090;51.224;-2.328;2022-07-11T06:57:15;25.10;56.20
65050;DHT22;52090;51.224;-2.328;2022-07-11T07:01:01;25.30;56.00
65050;DHT22;52090;51.224;-2.328;2022-07-11T07:04:43;25.40;55.40
65050;DHT22;52090;51.224;-2.328;2022-07-11T07:08:26;25.60;55.20
65050;DHT22;52090;51.224;-2.328;2022-07-11T07:12:08;25.80;55.00
65050;DHT22;52090;51.224;-2.328;2022-07-11T07:15:51;25.90;54.80
65050;DHT22;52090;51.224;-2.328;2022-07-11T07:19:34;26.10;54.70
65050;DHT22;52090;51.224;-2.328;2022-07-11T07:23:16;26.30;54.60
65050;DHT22;52090;51.224;-2.328;2022-07-11T07:26:59;26.40;54.30
65050;DHT22;52090;51.224;-2.328;2022-07-11T07:30:41;26.60;53.70
65050;DHT22;52090;51.224;-2.328;2022-07-11T07:34:22;26.60;53.90
65050;DHT22;52090;51.224;-2.328;2022-07-11T07:38:04;26.90;53.50
65050;DHT22;52090;51.224;-2.328;2022-07-11T07:41:46;27.00;52.60
65050;DHT22;52090;51.224;-2.328;2022-07-11T07:45:28;27.20;51.90
65050;DHT22;52090;51.224;-2.328;2022-07-11T07:49:10;27.30;51.60
65050;DHT22;52090;51.224;-2.328;2022-07-11T07:52:52;27.50;51.40
65050;DHT22;52090;51.224;-2.328;2022-07-11T07:56:34;27.60;51.30
65050;DHT22;52090;51.224;-2.328;2022-07-11T08:00:16;27.70;51.30
65050;DHT22;52090;51.224;-2.328;2022-07-11T08:04:19;27.80;51.10
65050;DHT22;52090;51.224;-2.328;2022-07-11T08:08:01;27.90;51.00
65050;DHT22;52090;51.224;-2.328;2022-07-11T08:11:45;28.00;50.80
65050;DHT22;52090;51.224;-2.328;2022-07-11T08:15:27;28.10;50.90
65050;DHT22;52090;51.224;-2.328;2022-07-11T08:19:09;28.10;50.00
65050;DHT22;52090;51.224;-2.328;2022-07-11T08:22:58;28.10;49.50
65050;DHT22;52090;51.224;-2.328;2022-07-11T08:26:40;28.10;49.50
65050;DHT22;52090;51.224;-2.328;2022-07-11T08:30:22;28.20;48.90
65050;DHT22;52090;51.224;-2.328;2022-07-11T08:34:03;28.20;48.70
65050;DHT22;52090;51.224;-2.328;2022-07-11T08:37:45;28.10;48.70
65050;DHT22;52090;51.224;-2.328;2022-07-11T08:41:27;28.10;48.60
65050;DHT22;52090;51.224;-2.328;2022-07-11T08:45:13;28.10;48.60
65050;DHT22;52090;51.224;-2.328;2022-07-11T08:48:57;28.20;47.20
65050;DHT22;52090;51.224;-2.328;2022-07-11T08:52:40;28.20;48.00
65050;DHT22;52090;51.224;-2.328;2022-07-11T08:56:24;28.20;47.90
65050;DHT22;52090;51.224;-2.328;2022-07-11T09:00:09;28.30;47.70
65050;DHT22;52090;51.224;-2.328;2022-07-11T09:03:50;28.30;47.30
65050;DHT22;52090;51.224;-2.328;2022-07-11T09:07:34;28.20;47.70
65050;DHT22;52090;51.224;-2.328;2022-07-11T09:11:16;28.30;47.70
65050;DHT22;52090;51.224;-2.328;2022-07-11T09:14:58;28.40;47.50
65050;DHT22;52090;51.224;-2.328;2022-07-11T09:18:41;28.40;47.20
65050;DHT22;52090;51.224;-2.328;2022-07-11T09:22:24;28.40;47.10
65050;DHT22;52090;51.224;-2.328;2022-07-11T09:26:25;28.40;47.10
65050;DHT22;52090;51.224;-2.328;2022-07-11T09:30:27;28.40;47.30
65050;DHT22;52090;51.224;-2.328;2022-07-11T09:34:12;28.30;46.20
65050;DHT22;52090;51.224;-2.328;2022-07-11T09:37:54;28.30;46.60
65050;DHT22;52090;51.224;-2.328;2022-07-11T09:41:37;28.20;46.80
65050;DHT22;52090;51.224;-2.328;2022-07-11T09:45:27;28.00;46.80
65050;DHT22;52090;51.224;-2.328;2022-07-11T09:49:09;27.80;47.30
65050;DHT22;52090;51.224;-2.328;2022-07-11T09:53:04;27.60;47.50
65050;DHT22;52090;51.224;-2.328;2022-07-11T09:56:46;27.50;47.60
65050;DHT22;52090;51.224;-2.328;2022-07-11T10:00:38;27.40;47.90
65050;DHT22;52090;51.224;-2.328;2022-07-11T10:04:21;27.30;48.10
65050;DHT22;52090;51.224;-2.328;2022-07-11T10:08:03;27.20;48.10
65050;DHT22;52090;51.224;-2.328;2022-07-11T10:11:46;27.10;48.30
65050;DHT22;52090;51.224;-2.328;2022-07-11T10:15:32;27.10;48.50
65050;DHT22;52090;51.224;-2.328;2022-07-11T10:19:26;27.20;48.30
65050;DHT22;52090;51.224;-2.328;2022-07-11T10:23:30;27.10;48.70
65050;DHT22;52090;51.224;-2.328;2022-07-11T10:27:36;27.20;48.20
65050;DHT22;52090;51.224;-2.328;2022-07-11T10:31:26;27.20;48.00
65050;DHT22;52090;51.224;-2.328;2022-07-11T10:35:31;27.20;48.00
65050;DHT22;52090;51.224;-2.328;2022-07-11T10:39:22;27.20;48.10
65050;DHT22;52090;51.224;-2.328;2022-07-11T10:43:09;27.20;48.00
65050;DHT22;52090;51.224;-2.328;2022-07-11T10:46:50;27.20;48.40
65050;DHT22;52090;51.224;-2.328;2022-07-11T10:50:34;27.20;48.60
65050;DHT22;52090;51.224;-2.328;2022-07-11T10:58:30;27.20;47.80
65050;DHT22;52090;51.224;-2.328;2022-07-11T11:02:13;27.20;48.00
65050;DHT22;52090;51.224;-2.328;2022-07-11T11:05:56;27.30;48.20
65050;DHT22;52090;51.224;-2.328;2022-07-11T11:09:38;27.30;48.00
65050;DHT22;52090;51.224;-2.328;2022-07-11T11:13:20;27.30;47.70
65050;DHT22;52090;51.224;-2.328;2022-07-11T11:17:34;27.30;47.70
65050;DHT22;52090;51.224;-2.328;2022-07-11T11:21:19;27.30;47.50
65050;DHT22;52090;51.224;-2.328;2022-07-11T11:25:01;27.30;48.00
65050;DHT22;52090;51.224;-2.328;2022-07-11T11:29:07;27.30;47.80
65050;DHT22;52090;51.224;-2.328;2022-07-11T11:32:49;27.30;47.90
65050;DHT22;52090;51.224;-2.328;2022-07-11T11:36:31;27.40;47.50
65050;DHT22;52090;51.224;-2.328;2022-07-11T11:40:13;27.40;47.40
65050;DHT22;52090;51.224;-2.328;2022-07-11T11:44:00;27.40;47.20
65050;DHT22;52090;51.224;-2.328;2022-07-11T11:47:48;27.40;47.00
65050;DHT22;52090;51.224;-2.328;2022-07-11T11:51:32;27.40;46.60
65050;DHT22;52090;51.224;-2.328;2022-07-11T11:55:14;27.40;47.20
65050;DHT22;52090;51.224;-2.328;2022-07-11T11:59:06;27.40;47.50
65050;DHT22;52090;51.224;-2.328;2022-07-11T12:02:58;27.40;47.30
65050;DHT22;52090;51.224;-2.328;2022-07-11T12:10:24;27.50;47.50
65050;DHT22;52090;51.224;-2.328;2022-07-11T12:14:09;27.50;47.60
65050;DHT22;52090;51.224;-2.328;2022-07-11T12:17:53;27.50;47.50
65050;DHT22;52090;51.224;-2.328;2022-07-11T12:21:42;27.50;47.20
65050;DHT22;52090;51.224;-2.328;2022-07-11T12:25:24;27.50;47.10
65050;DHT22;52090;51.224;-2.328;2022-07-11T12:29:12;27.50;47.20
65050;DHT22;52090;51.224;-2.328;2022-07-11T12:33:05;27.60;47.50
65050;DHT22;52090;51.224;-2.328;2022-07-11T12:36:47;27.60;46.70
65050;DHT22;52090;51.224;-2.328;2022-07-11T12:40:29;27.60;47.10
65050;DHT22;52090;51.224;-2.328;2022-07-11T12:44:11;27.60;46.80
65050;DHT22;52090;51.224;-2.328;2022-07-11T12:48:11;27.60;47.00
65050;DHT22;52090;51.224;-2.328;2022-07-11T12:51:53;27.70;46.90
65050;DHT22;52090;51.224;-2.328;2022-07-11T12:55:35;27.70;46.80
65050;DHT22;52090;51.224;-2.328;2022-07-11T12:59:23;27.70;46.60
65050;DHT22;52090;51.224;-2.328;2022-07-11T13:03:06;27.80;46.60
65050;DHT22;52090;51.224;-2.328;2022-07-11T13:11:23;27.80;46.40
65050;DHT22;52090;51.224;-2.328;2022-07-11T13:15:08;27.80;46.50
65050;DHT22;52090;51.224;-2.328;2022-07-11T13:19:00;27.80;46.60
65050;DHT22;52090;51.224;-2.328;2022-07-11T13:22:43;27.80;46.80
65050;DHT22;52090;51.224;-2.328;2022-07-11T13:26:25;27.90;47.00
65050;DHT22;52090;51.224;-2.328;2022-07-11T13:30:09;27.90;47.10
65050;DHT22;52090;51.224;-2.328;2022-07-11T13:33:53;28.00;46.70
65050;DHT22;52090;51.224;-2.328;2022-07-11T13:37:38;28.00;46.50
65050;DHT22;52090;51.224;-2.328;2022-07-11T13:41:22;28.00;46.10
65050;DHT22;52090;51.224;-2.328;2022-07-11T13:45:04;28.10;46.10
65050;DHT22;52090;51.224;-2.328;2022-07-11T13:48:47;28.10;46.10
65050;DHT22;52090;51.224;-2.328;2022-07-11T13:52:29;28.20;46.20
65050;DHT22;52090;51.224;-2.328;2022-07-11T13:56:11;28.20;46.20
65050;DHT22;52090;51.224;-2.328;2022-07-11T13:59:53;28.20;46.00
65050;DHT22;52090;51.224;-2.328;2022-07-11T14:03:35;28.20;46.20
65050;DHT22;52090;51.224;-2.328;2022-07-11T14:07:17;28.30;46.00
65050;DHT22;52090;51.224;-2.328;2022-07-11T14:10:59;28.30;46.20
65050;DHT22;52090;51.224;-2.328;2022-07-11T14:14:40;28.40;46.20
65050;DHT22;52090;51.224;-2.328;2022-07-11T14:18:22;28.50;46.00
65050;DHT22;52090;51.224;-2.328;2022-07-11T14:22:05;28.50;45.80
65050;DHT22;52090;51.224;-2.328;2022-07-11T14:25:47;28.60;45.90
65050;DHT22;52090;51.224;-2.328;2022-07-11T14:29:29;28.60;45.70
65050;DHT22;52090;51.224;-2.328;2022-07-11T14:33:13;28.70;45.40
65050;DHT22;52090;51.224;-2.328;2022-07-11T14:36:56;28.70;45.40
65050;DHT22;52090;51.224;-2.328;2022-07-11T14:40:37;28.80;45.10
65050;DHT22;52090;51.224;-2.328;2022-07-11T14:44:19;28.80;45.10
65050;DHT22;52090;51.224;-2.328;2022-07-11T14:48:01;28.80;44.90
65050;DHT22;52090;51.224;-2.328;2022-07-11T14:51:43;28.90;44.60
65050;DHT22;52090;51.224;-2.328;2022-07-11T14:55:37;28.80;44.50
65050;DHT22;52090;51.224;-2.328;2022-07-11T14:59:19;28.80;44.70
65050;DHT22;52090;51.224;-2.328;2022-07-11T15:03:01;28.80;44.80
65050;DHT22;52090;51.224;-2.328;2022-07-11T15:07:01;28.90;44.60
65050;DHT22;52090;51.224;-2.328;2022-07-11T15:11:02;28.90;44.30
65050;DHT22;52090;51.224;-2.328;2022-07-11T15:15:02;28.90;44.20
65050;DHT22;52090;51.224;-2.328;2022-07-11T15:18:45;28.90;44.10
65050;DHT22;52090;51.224;-2.328;2022-07-11T15:22:27;28.90;44.10
65050;DHT22;52090;51.224;-2.328;2022-07-11T15:26:08;28.80;44.10
65050;DHT22;52090;51.224;-2.328;2022-07-11T15:29:50;28.80;43.90
65050;DHT22;52090;51.224;-2.328;2022-07-11T15:33:32;28.80;44.10
65050;DHT22;52090;51.224;-2.328;2022-07-11T15:37:14;28.80;43.90
65050;DHT22;52090;51.224;-2.328;2022-07-11T15:40:56;28.80;43.80
65050;DHT22;52090;51.224;-2.328;2022-07-11T15:44:38;28.70;43.70
65050;DHT22;52090;51.224;-2.328;2022-07-11T15:48:20;28.70;43.70
65050;DHT22;52090;51.224;-2.328;2022-07-11T15:52:02;28.70;43.70
65050;DHT22;52090;51.224;-2.328;2022-07-11T15:55:44;28.70;43.90
65050;DHT22;52090;51.224;-2.328;2022-07-11T15:59:28;28.70;44.20
65050;DHT22;52090;51.224;-2.328;2022-07-11T16:03:12;28.70;43.50
65050;DHT22;52090;51.224;-2.328;2022-07-11T16:06:54;28.70;43.70
65050;DHT22;52090;51.224;-2.328;2022-07-11T16:10:36;28.70;43.80
65050;DHT22;52090;51.224;-2.328;2022-07-11T16:14:21;28.70;43.90
65050;DHT22;52090;51.224;-2.328;2022-07-11T16:18:03;28.80;44.10
65050;DHT22;52090;51.224;-2.328;2022-07-11T16:21:45;28.90;43.90
65050;DHT22;52090;51.224;-2.328;2022-07-11T16:25:27;28.90;43.90
65050;DHT22;52090;51.224;-2.328;2022-07-11T16:29:10;28.90;43.90
65050;DHT22;52090;51.224;-2.328;2022-07-11T16:32:52;28.90;43.90
65050;DHT22;52090;51.224;-2.328;2022-07-11T16:36:34;28.90;43.90
65050;DHT22;52090;51.224;-2.328;2022-07-11T16:40:16;28.90;43.90
65050;DHT22;52090;51.224;-2.328;2022-07-11T16:44:16;28.90;43.90
65050;DHT22;52090;51.224;-2.328;2022-07-11T16:47:58;29.00;44.20
65050;DHT22;52090;51.224;-2.328;2022-07-11T16:51:40;29.00;44.10
65050;DHT22;52090;51.224;-2.328;2022-07-11T16:55:22;29.00;44.00
65050;DHT22;52090;51.224;-2.328;2022-07-11T16:59:03;29.00;44.00
65050;DHT22;52090;51.224;-2.328;2022-07-11T17:02:45;29.00;43.90
65050;DHT22;52090;51.224;-2.328;2022-07-11T17:06:28;29.00;44.00
65050;DHT22;52090;51.224;-2.328;2022-07-11T17:10:09;28.90;44.20
65050;DHT22;52090;51.224;-2.328;2022-07-11T17:13:54;28.90;44.10
65050;DHT22;52090;51.224;-2.328;2022-07-11T17:17:36;28.90;44.00
65050;DHT22;52090;51.224;-2.328;2022-07-11T17:21:18;28.90;44.10
65050;DHT22;52090;51.224;-2.328;2022-07-11T17:25:00;28.90;44.10
65050;DHT22;52090;51.224;-2.328;2022-07-11T17:28:42;28.90;43.90
65050;DHT22;52090;51.224;-2.328;2022-07-11T17:32:24;28.80;43.90
65050;DHT22;52090;51.224;-2.328;2022-07-11T17:36:07;28.80;43.80
65050;DHT22;52090;51.224;-2.328;2022-07-11T17:39:50;28.60;43.70
65050;DHT22;52090;51.224;-2.328;2022-07-11T17:43:32;28.50;43.70
65050;DHT22;52090;51.224;-2.328;2022-07-11T17:47:14;28.40;43.80
65050;DHT22;52090;51.224;-2.328;2022-07-11T17:50:56;28.30;44.60
65050;DHT22;52090;51.224;-2.328;2022-07-11T17:54:58;28.20;43.90
65050;DHT22;52090;51.224;-2.328;2022-07-11T17:58:40;28.10;43.90
65050;DHT22;52090;51.224;-2.328;2022-07-11T18:02:22;28.00;43.90
65050;DHT22;52090;51.224;-2.328;2022-07-11T18:06:03;27.90;44.10
65050;DHT22;52090;51.224;-2.328;2022-07-11T18:09:45;27.80;44.10
65050;DHT22;52090;51.224;-2.328;2022-07-11T18:13:27;27.70;45.00
65050;DHT22;52090;51.224;-2.328;2022-07-11T18:17:10;27.70;44.30
65050;DHT22;52090;51.224;-2.328;2022-07-11T18:20:52;27.60;44.30
65050;DHT22;52090;51.224;-2.328;2022-07-11T18:24:33;27.60;44.30
65050;DHT22;52090;51.224;-2.328;2022-07-11T18:28:18;27.50;45.00
65050;DHT22;52090;51.224;-2.328;2022-07-11T18:32:00;27.50;44.30
65050;DHT22;52090;51.224;-2.328;2022-07-11T18:35:43;27.40;44.40
65050;DHT22;52090;51.224;-2.328;2022-07-11T18:39:25;27.30;44.40
65050;DHT22;52090;51.224;-2.328;2022-07-11T18:43:26;27.30;44.70
65050;DHT22;52090;51.224;-2.328;2022-07-11T18:47:08;27.30;44.80
65050;DHT22;52090;51.224;-2.328;2022-07-11T18:50:50;27.20;44.80
65050;DHT22;52090;51.224;-2.328;2022-07-11T18:54:33;27.10;44.90
65050;DHT22;52090;51.224;-2.328;2022-07-11T18:58:14;27.00;44.90
65050;DHT22;52090;51.224;-2.328;2022-07-11T19:01:56;27.00;45.00
65050;DHT22;52090;51.224;-2.328;2022-07-11T19:05:38;26.90;45.10
65050;DHT22;52090;51.224;-2.328;2022-07-11T19:09:20;26.80;45.20
65050;DHT22;52090;51.224;-2.328;2022-07-11T19:13:03;26.80;45.50
65050;DHT22;52090;51.224;-2.328;2022-07-11T19:16:45;26.70;45.60
65050;DHT22;52090;51.224;-2.328;2022-07-11T19:20:27;26.60;45.70
65050;DHT22;52090;51.224;-2.328;2022-07-11T19:24:09;26.50;45.70
65050;DHT22;52090;51.224;-2.328;2022-07-11T19:27:51;26.40;45.80
65050;DHT22;52090;51.224;-2.328;2022-07-11T19:31:33;26.40;46.00
65050;DHT22;52090;51.224;-2.328;2022-07-11T19:35:15;26.30;46.10
65050;DHT22;52090;51.224;-2.328;2022-07-11T19:38:57;26.20;46.20
65050;DHT22;52090;51.224;-2.328;2022-07-11T19:42:39;26.10;46.30
65050;DHT22;52090;51.224;-2.328;2022-07-11T19:46:21;26.00;46.40
65050;DHT22;52090;51.224;-2.328;2022-07-11T19:50:04;26.00;46.60
65050;DHT22;52090;51.224;-2.328;2022-07-11T19:53:46;25.90;46.70
65050;DHT22;52090;51.224;-2.328;2022-07-11T19:57:31;25.80;46.80
65050;DHT22;52090;51.224;-2.328;2022-07-11T20:01:13;25.80;47.00
65050;DHT22;52090;51.224;-2.328;2022-07-11T20:04:55;25.70;47.10
65050;DHT22;52090;51.224;-2.328;2022-07-11T20:08:37;25.60;47.30
65050;DHT22;52090;51.224;-2.328;2022-07-11T20:12:20;25.50;47.50
65050;DHT22;52090;51.224;-2.328;2022-07-11T20:16:02;25.40;47.60
65050;DHT22;52090;51.224;-2.328;2022-07-11T20:19:44;25.30;47.80
65050;DHT22;52090;51.224;-2.328;2022-07-11T20:23:26;25.20;48.10
65050;DHT22;52090;51.224;-2.328;2022-07-11T20:27:08;25.10;48.20
65050;DHT22;52090;51.224;-2.328;2022-07-11T20:30:50;25.10;48.30
65050;DHT22;52090;51.224;-2.328;2022-07-11T20:34:32;25.00;48.60
65050;DHT22;52090;51.224;-2.328;2022-07-11T20:38:17;24.90;48.50
65050;DHT22;52090;51.224;-2.328;2022-07-11T20:42:00;24.90;49.50
65050;DHT22;52090;51.224;-2.328;2022-07-11T20:45:42;24.80;49.10
65050;DHT22;52090;51.224;-2.328;2022-07-11T20:49:24;24.70;49.10
65050;DHT22;52090;51.224;-2.328;2022-07-11T20:53:06;24.60;49.20
65050;DHT22;52090;51.224;-2.328;2022-07-11T20:56:48;24.60;49.30
65050;DHT22;52090;51.224;-2.328;2022-07-11T21:00:30;24.50;49.40
65050;DHT22;52090;51.224;-2.328;2022-07-11T21:04:12;24.40;49.50
65050;DHT22;52090;51.224;-2.328;2022-07-11T21:07:54;24.40;49.60
65050;DHT22;52090;51.224;-2.328;2022-07-11T21:11:36;24.30;49.70
65050;DHT22;52090;51.224;-2.328;2022-07-11T21:15:22;24.30;49.80
65050;DHT22;52090;51.224;-2.328;2022-07-11T21:19:04;24.30;49.90
65050;DHT22;52090;51.224;-2.328;2022-07-11T21:22:46;24.20;50.00
65050;DHT22;52090;51.224;-2.328;2022-07-11T21:26:29;24.20;50.30
65050;DHT22;52090;51.224;-2.328;2022-07-11T21:30:11;24.10;50.30
65050;DHT22;52090;51.224;-2.328;2022-07-11T21:33:53;24.10;50.50
65050;DHT22;52090;51.224;-2.328;2022-07-11T21:37:35;24.00;50.60
65050;DHT22;52090;51.224;-2.328;2022-07-11T21:41:17;24.00;50.80
65050;DHT22;52090;51.224;-2.328;2022-07-11T21:44:58;24.00;50.80
65050;DHT22;52090;51.224;-2.328;2022-07-11T21:48:41;23.90;51.00
65050;DHT22;52090;51.224;-2.328;2022-07-11T21:52:23;23.90;51.80
65050;DHT22;52090;51.224;-2.328;2022-07-11T21:56:05;23.90;51.20
65050;DHT22;52090;51.224;-2.328;2022-07-11T21:59:46;23.80;51.30
65050;DHT22;52090;51.224;-2.328;2022-07-11T22:03:28;23.70;51.30
65050;DHT22;52090;51.224;-2.328;2022-07-11T22:07:11;23.70;51.50
65050;DHT22;52090;51.224;-2.328;2022-07-11T22:10:53;23.60;51.70
65050;DHT22;52090;51.224;-2.328;2022-07-11T22:14:35;23.60;51.80
65050;DHT22;52090;51.224;-2.328;2022-07-11T22:18:16;23.60;52.00
65050;DHT22;52090;51.224;-2.328;2022-07-11T22:21:58;23.50;51.80
65050;DHT22;52090;51.224;-2.328;2022-07-11T22:25:47;23.50;51.80
65050;DHT22;52090;51.224;-2.328;2022-07-11T22:29:29;23.50;51.90
65050;DHT22;52090;51.224;-2.328;2022-07-11T22:33:11;23.50;52.00
65050;DHT22;52090;51.224;-2.328;2022-07-11T22:36:53;23.40;52.20
65050;DHT22;52090;51.224;-2.328;2022-07-11T22:40:34;23.40;52.30
65050;DHT22;52090;51.224;-2.328;2022-07-11T22:44:16;23.30;52.30
65050;DHT22;52090;51.224;-2.328;2022-07-11T22:48:18;23.30;52.40
65050;DHT22;52090;51.224;-2.328;2022-07-11T22:52:00;23.30;52.40
65050;DHT22;52090;51.224;-2.328;2022-07-11T22:55:42;23.30;52.50
65050;DHT22;52090;51.224;-2.328;2022-07-11T22:59:24;23.30;52.60
65050;DHT22;52090;51.224;-2.328;2022-07-11T23:03:06;23.20;52.50
65050;DHT22;52090;51.224;-2.328;2022-07-11T23:06:47;23.20;52.70
65050;DHT22;52090;51.224;-2.328;2022-07-11T23:10:29;23.20;52.90
65050;DHT22;52090;51.224;-2.328;2022-07-11T23:14:11;23.20;53.10
65050;DHT22;52090;51.224;-2.328;2022-07-11T23:17:53;23.20;53.20
65050;DHT22;52090;51.224;-2.328;2022-07-11T23:21:35;23.10;53.30